KQWM/QWM METAR and TAF weather

Enter ICAO airport designator
Station Type Date Time Source
KQWM METAR 2022/01/19 19:55 UTC NOAA

KQWM 191955Z AUTO 19002KT 9999 SCT095 08/00 A3016 RMK AO2 SLP215 WND DATA ESTMD T00771004


Station Type Date Time Source
KQWM Decoded METAR 2022/01/19 19:55 UTC NOAA

Station name not available
Jan 19, 2022 - 02:55 PM EST / 2022.01.19 1955 UTC
Wind: from the S (190 degrees) at 2 MPH (2 KT):0
Visibility: greater than 7 mile(s):0
Sky conditions: partly cloudy
Temperature: 45.9 F (7.7 C)
Dew Point: 31.3 F (-0.4 C)
Relative Humidity: 56%
Pressure (altimeter): 30.16 in. Hg (1021 hPa)
ob: KQWM 191955Z AUTO 19002KT 9999 SCT095 08/00 A3016 RMK AO2 SLP215 WND DATA ESTMD T00771004
cycle: 20

Station Type Date Time Source
KQWM TAF 2016/03/17 15:00 UTC NOAA

TAF KQWM 171500Z 1715/1821 28009KT 9000 HZ SKC QNH2995INS
TEMPO 1715/1717 27015G20KT
BECMG 1807/1808 29012G20KT 8000 HZ SKC QNH2998INS
BECMG 1814/1815 29009KT 9999 NSW SKC QNH3002INS TX26/1811Z TN13/1803Z

Example: see airport list